Time;durP1;ratioP1;P1;durP2;ratioP2;P2;SDS_P1;SDS_P2;PMS_P1;PMS_P2;Temp;Humidity;BMP_temperature;BMP_pressure;BME280_temperature;BME280_humidity;BME280_pressure;Samples;Min_cycle;Max_cycle;Signal;HPM_P1;HPM_P2
2022/05/19 00:00:23;;;;;;;7.70;4.28;;;;;;;-144.47;50.85;53249.38;5028325;28;20025;-67
2022/05/19 00:02:48;;;;;;;7.50;3.90;;;;;;;-144.47;50.80;53253.34;5042066;28;20032;-69
2022/05/19 00:05:14;;;;;;;8.65;4.25;;;;;;;-144.47;50.99;53243.41;5031629;28;20095;-70
2022/05/19 00:07:39;;;;;;;14.50;4.45;;;;;;;-144.47;51.02;53221.56;5038108;28;20037;-70
2022/05/19 00:10:05;;;;;;;6.18;3.47;;;;;;;-144.47;51.06;53207.66;5029511;28;20083;-70
2022/05/19 00:12:31;;;;;;;12.05;4.80;;;;;;;-144.47;51.16;53219.56;5012949;28;20433;-69
2022/05/19 00:14:57;;;;;;;11.65;3.92;;;;;;;-144.47;51.21;53213.63;5043714;28;20053;-69
2022/05/19 00:17:23;;;;;;;12.10;4.28;;;;;;;-144.47;51.40;53261.28;5030268;28;20035;-70
2022/05/19 00:19:49;;;;;;;13.30;4.03;;;;;;;-144.47;51.26;53215.59;5045959;22;20049;-65
2022/05/19 00:22:14;;;;;;;7.32;4.18;;;;;;;-144.47;51.42;53223.56;5030451;28;20183;-61
2022/05/19 00:24:39;;;;;;;9.52;4.13;;;;;;;-144.47;51.20;53239.44;5029093;28;20056;-65
2022/05/19 00:27:05;;;;;;;9.43;4.25;;;;;;;-144.47;51.42;53205.66;5022724;28;20547;-62
2022/05/19 00:29:30;;;;;;;9.35;4.53;;;;;;;-144.47;51.24;53247.38;5022762;28;20025;-65
2022/05/19 00:31:56;;;;;;;9.00;3.95;;;;;;;-144.47;51.40;53231.50;5025114;28;20017;-64
2022/05/19 00:34:21;;;;;;;9.40;4.93;;;;;;;-144.47;51.50;53201.69;5029484;28;20040;-65
2022/05/19 00:36:46;;;;;;;7.70;4.57;;;;;;;-144.47;51.58;53231.50;5030481;28;20064;-63
2022/05/19 00:39:13;;;;;;;10.50;4.97;;;;;;;-144.47;51.72;53221.56;5029561;28;20030;-65
2022/05/19 00:41:43;;;;;;;7.45;4.32;;;;;;;-144.47;51.73;53261.28;5030232;28;20024;-64
2022/05/19 00:44:08;;;;;;;31.38;4.50;;;;;;;-144.47;51.72;53205.66;5029782;28;20043;-62
2022/05/19 00:46:51;;;;;;;10.60;4.80;;;;;;;-144.47;51.81;53233.47;5030548;28;20029;-61
2022/05/19 00:49:23;;;;;;;9.13;4.25;;;;;;;-144.47;51.99;53237.44;5016929;28;20416;-61
2022/05/19 00:51:57;;;;;;;8.60;4.30;;;;;;;-144.47;52.04;53239.44;5029834;28;20040;-65
2022/05/19 00:54:34;;;;;;;8.95;3.70;;;;;;;-144.47;51.57;53235.47;5029340;28;20399;-65
2022/05/19 00:57:02;;;;;;;9.45;4.43;;;;;;;-144.47;51.41;53239.44;5029949;28;20029;-63
2022/05/19 00:59:42;;;;;;;7.70;4.18;;;;;;;-144.47;51.52;53247.38;5029013;28;20103;-64
2022/05/19 01:02:12;;;;;;;7.32;4.13;;;;;;;-144.47;51.77;53241.44;5030021;28;20021;-65
2022/05/19 01:04:44;;;;;;;12.48;4.75;;;;;;;-144.47;51.74;53219.56;5028445;28;20103;-64
2022/05/19 01:07:16;;;;;;;7.25;4.28;;;;;;;-144.47;51.86;53217.59;5028855;28;20025;-62
2022/05/19 01:09:42;;;;;;;11.65;4.10;;;;;;;-144.47;52.34;53235.47;5011346;28;20072;-65
2022/05/19 01:12:09;;;;;;;19.17;5.40;;;;;;;-144.47;52.18;53261.28;5028566;28;20028;-64
2022/05/19 01:14:35;;;;;;;11.15;5.28;;;;;;;-144.47;52.18;53247.38;5029706;28;20056;-63
2022/05/19 01:17:02;;;;;;;10.80;4.75;;;;;;;-144.47;52.14;53261.28;5030046;28;20130;-65
2022/05/19 01:19:39;;;;;;;8.15;4.70;;;;;;;-144.47;52.44;53253.34;5029079;28;20033;-64
2022/05/19 01:22:26;;;;;;;8.60;4.40;;;;;;;-144.47;52.34;53265.25;5029733;28;20131;-65
2022/05/19 01:25:14;;;;;;;10.95;5.03;;;;;;;-144.47;52.59;53243.41;5029946;28;20108;-63
2022/05/19 01:27:39;;;;;;;11.07;5.25;;;;;;;-144.47;52.75;53251.34;5017449;28;20049;-65
2022/05/19 01:30:08;;;;;;;9.45;4.57;;;;;;;-144.47;52.60;53223.56;5029626;28;20067;-64
2022/05/19 01:32:33;;;;;;;14.93;4.82;;;;;;;-144.47;52.56;53217.59;5029994;28;20034;-63
2022/05/19 01:34:59;;;;;;;12.02;4.65;;;;;;;-144.47;52.79;53237.44;5029960;28;20064;-64
2022/05/19 01:37:25;;;;;;;13.15;5.18;;;;;;;-144.47;52.73;53197.72;5030364;28;20059;-62
2022/05/19 01:39:56;;;;;;;9.60;4.55;;;;;;;-144.47;52.83;53239.44;5029460;28;20075;-64
2022/05/19 01:42:21;;;;;;;15.07;4.80;;;;;;;-144.47;52.88;53281.16;5030800;28;20036;-61
2022/05/19 01:44:59;;;;;;;11.50;4.25;;;;;;;-144.47;53.07;53235.47;5031262;28;20025;-63
2022/05/19 01:47:51;;;;;;;9.25;4.30;;;;;;;-144.47;53.17;53223.56;5027991;28;20018;-63
2022/05/19 01:50:57;;;;;;;9.52;4.45;;;;;;;-144.47;53.37;53221.56;5017004;28;20026;-60
2022/05/19 01:53:31;;;;;;;10.70;4.80;;;;;;;-144.47;53.48;53261.28;5034366;28;20556;-62
2022/05/19 01:55:56;;;;;;;11.15;4.57;;;;;;;-144.47;53.69;53279.16;5034094;28;20028;-67
2022/05/19 01:58:30;;;;;;;10.35;4.85;;;;;;;-144.47;53.61;53237.44;5033566;28;20464;-64
2022/05/19 02:00:59;;;;;;;9.13;4.43;;;;;;;-144.47;53.63;53263.28;5029626;28;20332;-64
2022/05/19 02:03:35;;;;;;;11.32;5.13;;;;;;;-144.47;53.86;53237.44;5032000;28;20096;-63
2022/05/19 02:06:32;;;;;;;13.48;4.93;;;;;;;-144.47;53.88;53271.22;5046642;28;20134;-65
2022/05/19 02:09:05;;;;;;;10.23;5.10;;;;;;;-144.47;53.86;53237.44;5031379;28;20021;-65
2022/05/19 02:11:36;;;;;;;12.57;5.00;;;;;;;-144.47;53.85;53261.28;5032973;28;20033;-63
2022/05/19 02:14:07;;;;;;;9.63;4.68;;;;;;;-144.47;53.95;53241.44;5033225;28;20030;-64
2022/05/19 02:16:33;;;;;;;10.32;4.35;;;;;;;-144.47;54.10;53273.22;5032741;28;20030;-62
2022/05/19 02:18:58;;;;;;;8.45;4.30;;;;;;;-144.47;54.22;53197.72;5032103;28;20025;-67
2022/05/19 02:21:25;;;;;;;9.35;4.60;;;;;;;-144.47;54.45;53213.63;5032715;28;20044;-65
2022/05/19 02:23:50;;;;;;;11.80;4.75;;;;;;;-144.47;54.25;53235.47;5032874;28;20036;-64
2022/05/19 02:26:16;;;;;;;10.82;4.65;;;;;;;-144.47;54.47;53269.22;5032341;28;20029;-64
2022/05/19 02:28:41;;;;;;;9.73;5.35;;;;;;;-144.47;54.38;53251.34;5032665;28;20045;-64
2022/05/19 02:31:07;;;;;;;13.93;4.97;;;;;;;-144.47;54.69;53261.28;5031199;28;20027;-65
2022/05/19 02:33:32;;;;;;;15.30;5.18;;;;;;;-144.47;54.68;53253.34;5032407;28;20398;-63
2022/05/19 02:35:57;;;;;;;8.35;4.80;;;;;;;-144.47;54.78;53241.44;5032300;28;20062;-66
2022/05/19 02:38:23;;;;;;;11.98;5.40;;;;;;;-144.47;54.99;53251.34;5032890;28;20040;-63
2022/05/19 02:40:49;;;;;;;11.48;5.15;;;;;;;-144.47;55.07;53271.22;5032291;28;20404;-64
2022/05/19 02:43:16;;;;;;;17.48;5.30;;;;;;;-144.47;55.27;53245.41;5032583;28;20037;-64
2022/05/19 02:45:42;;;;;;;10.13;5.55;;;;;;;-144.47;55.48;53253.34;5033096;28;20040;-61
2022/05/19 02:48:09;;;;;;;10.85;5.00;;;;;;;-144.47;55.46;53253.34;5031073;28;20103;-63
2022/05/19 02:50:36;;;;;;;12.35;5.47;;;;;;;-144.47;55.79;53245.41;5027997;28;20042;-64
2022/05/19 02:53:03;;;;;;;10.00;5.07;;;;;;;-144.47;55.79;53279.16;5021604;28;20025;-61
2022/05/19 02:55:29;;;;;;;12.40;6.18;;;;;;;-144.47;55.75;53279.16;5032981;28;20022;-63
2022/05/19 02:57:54;;;;;;;16.20;6.72;;;;;;;-144.47;55.48;53271.22;5032640;28;20032;-62
2022/05/19 03:00:25;;;;;;;12.63;6.03;;;;;;;-144.47;55.65;53253.34;5031773;28;20021;-63
2022/05/19 03:02:53;;;;;;;10.20;5.18;;;;;;;-144.47;55.82;53261.28;5028425;28;20032;-65
2022/05/19 03:05:23;;;;;;;13.73;4.55;;;;;;;-144.47;55.79;53293.06;5025775;28;20028;-62
2022/05/19 03:07:48;;;;;;;10.20;5.38;;;;;;;-144.47;55.68;53229.50;5032426;28;20033;-63
2022/05/19 03:10:15;;;;;;;13.55;5.35;;;;;;;-144.47;55.53;53231.50;5032070;28;20625;-65
2022/05/19 03:12:40;;;;;;;10.43;4.80;;;;;;;-144.47;55.74;53267.25;5031680;28;20638;-61
2022/05/19 03:15:08;;;;;;;12.98;5.45;;;;;;;-144.47;55.79;53291.09;5032523;28;20030;-63
2022/05/19 03:17:33;;;;;;;10.30;5.30;;;;;;;-144.47;55.76;53265.25;5031569;28;20040;-63
2022/05/19 03:19:59;;;;;;;11.75;4.55;;;;;;;-144.47;55.80;53271.22;5029835;28;20108;-62
2022/05/19 03:22:27;;;;;;;11.45;5.18;;;;;;;-144.47;55.70;53239.44;5031592;28;20060;-65
2022/05/19 03:24:53;;;;;;;12.40;4.97;;;;;;;-144.47;55.46;53267.25;5031903;28;20025;-64
2022/05/19 03:27:20;;;;;;;15.27;5.20;;;;;;;-144.47;55.35;53245.41;5031413;28;20034;-63
2022/05/19 03:29:48;;;;;;;9.55;5.40;;;;;;;-144.47;55.52;53267.25;5030548;28;20100;-62
2022/05/19 03:32:14;;;;;;;;;;;;;;;-144.47;55.55;53285.13;5020760;28;20026;-62
2022/05/19 03:34:39;;;;;;;10.10;4.60;;;;;;;-144.47;55.60;53259.31;5030832;28;19908;-63
2022/05/19 03:37:06;;;;;;;13.00;5.22;;;;;;;-144.47;55.37;53295.06;5030052;28;20392;-62
2022/05/19 03:39:32;;;;;;;8.23;4.53;;;;;;;-144.47;55.58;53293.06;5030633;28;20033;-65
2022/05/19 03:41:57;;;;;;;12.88;5.22;;;;;;;-144.47;55.30;53285.13;5031598;28;20021;-65
2022/05/19 03:44:23;;;;;;;8.60;4.63;;;;;;;-144.47;55.26;53287.13;5041296;28;20672;-62
2022/05/19 03:46:48;;;;;;;9.13;4.80;;;;;;;-144.47;55.19;53277.19;5031683;28;20484;-64
2022/05/19 03:49:13;;;;;;;14.35;4.70;;;;;;;-144.47;55.02;53269.22;5031391;28;20076;-61
2022/05/19 03:51:41;;;;;;;15.50;5.25;;;;;;;-144.47;54.74;53265.25;5030758;28;20481;-66
2022/05/19 03:54:06;;;;;;;14.13;4.65;;;;;;;-144.47;54.78;53261.28;5031740;28;20033;-63
2022/05/19 03:56:32;;;;;;;12.60;5.03;;;;;;;-144.47;54.53;53259.31;5030711;28;20048;-63
2022/05/19 03:58:57;;;;;;;9.90;5.20;;;;;;;-144.47;54.24;53211.63;5031340;28;20063;-65
2022/05/19 04:01:23;;;;;;;10.05;5.03;;;;;;;-144.47;54.08;53305.00;5026958;28;20017;-62
2022/05/19 04:03:49;;;;;;;8.52;4.35;;;;;;;-144.47;53.91;53267.25;5030224;28;20033;-65
2022/05/19 04:06:15;;;;;;;14.75;5.13;;;;;;;-144.47;53.97;53253.34;5031532;28;20025;-65
2022/05/19 04:08:40;;;;;;;13.60;4.65;;;;;;;-144.47;53.59;53229.50;5031409;28;20037;-64
2022/05/19 04:11:06;;;;;;;11.15;4.78;;;;;;;-144.47;53.53;53237.44;5030806;28;20037;-63
2022/05/19 04:13:31;;;;;;;14.15;4.35;;;;;;;-144.47;53.24;53257.31;5030942;28;20026;-64
2022/05/19 04:15:57;;;;;;;6.93;3.97;;;;;;;-144.47;52.94;53249.38;5030412;28;20105;-66
2022/05/19 04:18:22;;;;;;;9.40;4.25;;;;;;;-144.47;52.67;53273.22;5030747;28;20115;-62
2022/05/19 04:20:47;;;;;;;11.32;4.70;;;;;;;-144.47;52.74;53267.25;5029515;28;20472;-65
2022/05/19 04:23:13;;;;;;;8.30;4.45;;;;;;;-144.47;52.56;53241.44;5030476;28;20034;-64
2022/05/19 04:25:39;;;;;;;9.93;4.20;;;;;;;-144.47;52.25;53253.34;5030717;28;20402;-67
2022/05/19 04:28:05;;;;;;;10.23;4.32;;;;;;;-144.47;52.00;53253.34;5030401;28;20032;-68
2022/05/19 04:30:31;;;;;;;10.90;4.18;;;;;;;-144.47;51.93;53265.25;5013125;28;20040;-64
2022/05/19 04:32:56;;;;;;;7.93;4.00;;;;;;;-144.47;52.12;53265.25;5018101;28;20022;-64
2022/05/19 04:35:22;;;;;;;11.80;4.32;;;;;;;-144.47;51.65;53219.56;5029644;28;20021;-62
2022/05/19 04:37:47;;;;;;;12.80;4.72;;;;;;;-144.47;51.63;53251.34;5029988;28;20025;-65
2022/05/19 04:40:14;;;;;;;9.23;3.80;;;;;;;-144.47;51.47;53281.16;5029734;28;20477;-65
2022/05/19 04:42:40;;;;;;;15.40;4.63;;;;;;;-144.47;51.47;53269.22;5029526;28;20089;-64
2022/05/19 04:45:07;;;;;;;12.35;3.97;;;;;;;-144.47;51.21;53295.06;5030271;28;20033;-65
2022/05/19 04:47:33;;;;;;;6.72;3.80;;;;;;;-144.47;50.98;53273.22;5045580;28;20112;-63
2022/05/19 04:49:58;;;;;;;16.00;4.18;;;;;;;-144.47;51.00;53257.31;5029238;28;20461;-67
2022/05/19 04:52:23;;;;;;;11.40;4.53;;;;;;;-144.47;50.77;53259.31;5030055;28;20028;-63
2022/05/19 04:54:49;;;;;;;10.20;4.60;;;;;;;-144.47;50.90;53215.59;5029516;28;20108;-66
2022/05/19 04:57:15;;;;;;;14.88;4.15;;;;;;;-144.47;50.88;53225.53;5029922;28;20431;-66
2022/05/19 04:59:41;;;;;;;13.93;4.20;;;;;;;-144.47;50.29;53209.66;5029067;28;20082;-66
2022/05/19 05:02:08;;;;;;;8.70;3.72;;;;;;;-144.47;50.15;53211.63;5029039;28;20025;-66
2022/05/19 05:04:34;;;;;;;10.48;4.25;;;;;;;-144.47;49.88;53213.63;5028900;28;20036;-64
2022/05/19 05:07:00;;;;;;;9.40;4.32;;;;;;;-144.47;49.80;53243.41;5029532;28;20029;-65
2022/05/19 05:09:25;;;;;;;16.00;4.78;;;;;;;-144.47;49.41;53263.28;5029103;28;20032;-66
2022/05/19 05:11:51;;;;;;;11.95;4.38;;;;;;;-144.47;49.07;53225.53;5028283;28;20043;-65
2022/05/19 05:14:17;;;;;;;8.93;3.85;;;;;;;-144.47;48.90;53215.59;5029050;28;20116;-64
2022/05/19 05:16:45;;;;;;;9.35;3.63;;;;;;;-144.47;48.80;53205.66;5029259;28;20511;-63
2022/05/19 05:19:11;;;;;;;6.15;3.35;;;;;;;-144.47;48.76;53259.31;5026510;28;20038;-64
2022/05/19 05:21:36;;;;;;;9.63;3.97;;;;;;;-144.47;48.63;53251.34;5022224;28;20021;-64
2022/05/19 05:24:01;;;;;;;13.48;4.13;;;;;;;-144.47;48.49;53213.63;5029396;28;20033;-64
2022/05/19 05:26:27;;;;;;;15.00;4.13;;;;;;;-144.47;48.36;53253.34;5028165;28;20048;-66
2022/05/19 05:28:52;;;;;;;15.73;4.00;;;;;;;-144.47;48.33;53233.47;5028876;28;20484;-65
2022/05/19 05:31:17;;;;;;;21.23;4.63;;;;;;;-144.47;48.18;53231.50;5021650;28;20018;-63
2022/05/19 05:33:43;;;;;;;15.85;4.03;;;;;;;-144.47;47.88;53275.19;5021368;28;20032;-63
2022/05/19 05:36:08;;;;;;;14.18;8.05;;;;;;;-144.47;47.99;53221.56;5029077;28;20057;-63
2022/05/19 05:38:34;;;;;;;11.13;3.58;;;;;;;-144.47;47.86;53227.53;5029286;28;20039;-63
2022/05/19 05:41:02;;;;;;;8.02;3.42;;;;;;;-144.47;47.45;53217.59;5029524;28;20029;-64
2022/05/19 05:43:27;;;;;;;15.50;4.10;;;;;;;-144.47;47.42;53207.66;5029756;28;20075;-65
2022/05/19 05:45:52;;;;;;;9.55;4.43;;;;;;;-144.47;47.52;53201.69;5029170;28;20330;-62
2022/05/19 05:48:18;;;;;;;15.52;4.05;;;;;;;-144.47;47.31;53231.50;5029854;28;20131;-66
2022/05/19 05:50:44;;;;;;;10.43;4.40;;;;;;;-144.47;46.93;53175.88;5028179;28;20017;-65
2022/05/19 05:53:09;;;;;;;18.65;3.90;;;;;;;-144.47;46.91;53169.91;5021760;28;20021;-64
2022/05/19 05:55:39;;;;;;;11.75;3.22;;;;;;;-144.47;47.10;53233.47;5027627;28;20133;-64
2022/05/19 05:58:09;;;;;;;10.38;4.13;;;;;;;-144.47;46.40;53241.44;5029094;28;20024;-64
2022/05/19 06:00:35;;;;;;;26.27;4.25;;;;;;;-144.47;46.35;53211.63;5028906;28;20053;-65
2022/05/19 06:03:01;;;;;;;10.20;3.30;;;;;;;-144.47;45.92;53177.88;5026741;28;20137;-66
2022/05/19 06:05:26;;;;;;;11.68;3.25;;;;;;;-144.47;45.23;53173.88;5022345;28;20068;-66
2022/05/19 06:07:51;;;;;;;6.15;2.95;;;;;;;-144.47;45.33;53179.84;5029089;28;20072;-66
2022/05/19 06:10:17;;;;;;;15.23;3.58;;;;;;;-144.47;45.60;53199.72;5028376;28;20056;-64
2022/05/19 06:12:43;;;;;;;7.28;3.30;;;;;;;-144.47;45.48;53229.50;5029262;28;20048;-62
2022/05/19 06:15:12;;;;;;;11.77;3.00;;;;;;;-144.47;45.26;53189.78;5020451;28;20401;-64
2022/05/19 06:17:39;;;;;;;8.77;2.80;;;;;;;-144.47;44.50;53251.34;5020043;28;20471;-64
2022/05/19 06:20:10;;;;;;;10.55;3.60;;;;;;;-144.47;44.57;53235.47;5048379;23;20048;-66
2022/05/19 06:22:36;;;;;;;7.40;2.83;;;;;;;-144.47;44.61;53191.78;5043455;28;20032;-66
2022/05/19 06:25:01;;;;;;;14.30;3.25;;;;;;;-144.47;44.48;53209.66;5030268;28;20025;-67
2022/05/19 06:27:26;;;;;;;7.75;2.78;;;;;;;-144.47;44.66;53193.75;5036767;28;20063;-68
2022/05/19 06:29:52;;;;;;;11.60;3.17;;;;;;;-144.47;44.46;53161.97;5019420;28;20022;-65
2022/05/19 06:32:17;;;;;;;5.78;2.63;;;;;;;-144.47;44.28;53152.03;5027419;28;20477;-65
2022/05/19 06:34:42;;;;;;;10.27;3.58;;;;;;;-144.47;44.40;53193.75;4991916;28;20491;-66
2022/05/19 06:37:08;;;;;;;12.02;3.20;;;;;;;-144.47;44.05;53199.72;5030449;28;20104;-65
2022/05/19 06:39:33;;;;;;;14.10;2.80;;;;;;;-144.47;44.21;53165.94;5031240;28;20025;-66
2022/05/19 06:42:01;;;;;;;15.07;3.47;;;;;;;-144.47;44.04;53199.72;5031342;28;20407;-67
2022/05/19 06:44:33;;;;;;;16.08;3.53;;;;;;;-144.47;43.91;53187.78;5001930;28;20120;-66
2022/05/19 06:46:59;;;;;;;13.55;3.05;;;;;;;-144.47;43.96;53201.69;5029430;28;20109;-67
2022/05/19 06:49:25;;;;;;;23.65;3.40;;;;;;;-144.47;43.91;53183.81;5030450;28;20037;-66
2022/05/19 06:51:51;;;;;;;11.25;2.80;;;;;;;-144.47;43.46;53177.88;5031750;28;20025;-67
2022/05/19 06:54:18;;;;;;;9.00;3.20;;;;;;;-144.47;43.76;53197.72;5018415;28;20548;-66
2022/05/19 06:56:43;;;;;;;34.00;4.32;;;;;;;-144.47;43.78;53193.75;5032114;28;20082;-65
2022/05/19 06:59:08;;;;;;;11.18;3.08;;;;;;;-144.47;43.56;53195.75;5030330;28;20108;-65
2022/05/19 07:01:34;;;;;;;10.07;2.85;;;;;;;-144.47;43.46;53140.13;5013234;28;20029;-69
2022/05/19 07:04:00;;;;;;;13.95;3.90;;;;;;;-144.47;43.36;53160.00;5030312;28;20073;-66
2022/05/19 07:06:26;;;;;;;15.43;3.67;;;;;;;-144.47;43.14;53205.66;5030946;28;20030;-67
2022/05/19 07:08:51;;;;;;;10.23;3.35;;;;;;;-144.47;43.42;53173.88;5030548;28;20029;-64
2022/05/19 07:11:26;;;;;;;11.60;3.92;;;;;;;-144.47;43.53;53148.06;5031498;28;20415;-64
2022/05/19 07:14:00;;;;;;;11.68;3.40;;;;;;;-144.47;43.45;53209.66;5031221;28;20429;-66
2022/05/19 07:16:26;;;;;;;6.63;2.70;;;;;;;-144.47;43.37;53193.75;5031670;28;20029;-67
2022/05/19 07:20:43;;;;;;;8.75;2.97;;;;;;;-144.47;43.26;53167.94;5024587;28;20069;-66
2022/05/19 07:21:37;;;;;;;42.22;5.85;;;;;;;-144.47;43.44;53163.97;5024864;28;20033;-68
2022/05/19 07:24:02;;;;;;;14.25;3.50;;;;;;;-144.47;43.39;53189.78;5013749;28;20033;-68
2022/05/19 07:26:28;;;;;;;15.18;3.08;;;;;;;-144.47;43.20;53171.91;5031099;28;20389;-67
2022/05/19 07:28:53;;;;;;;13.00;3.30;;;;;;;-144.47;43.14;53167.94;5030999;28;20532;-68
2022/05/19 07:31:18;;;;;;;20.75;3.17;;;;;;;-144.47;42.75;53146.09;5023426;28;20025;-68
2022/05/19 07:33:44;;;;;;;9.40;2.72;;;;;;;-144.47;42.63;53197.72;5031041;28;20026;-67
2022/05/19 07:36:10;;;;;;;21.42;2.92;;;;;;;-144.47;42.10;53167.94;5030353;28;20603;-69
2022/05/19 07:38:35;;;;;;;6.57;2.47;;;;;;;-144.47;42.22;53179.84;5030275;28;20033;-67
2022/05/19 07:41:03;;;;;;;12.40;2.75;;;;;;;-144.47;41.59;53195.75;5030896;28;20101;-67
2022/05/19 07:43:37;;;;;;;8.77;2.83;;;;;;;-144.47;41.57;53173.88;5031466;28;20061;-67
2022/05/19 07:46:04;;;;;;;11.15;3.05;;;;;;;-144.47;41.18;53167.94;5030785;28;20033;-69
2022/05/19 07:48:29;;;;;;;7.63;2.40;;;;;;;-144.47;41.00;53179.84;5030155;28;20026;-66
2022/05/19 07:50:55;;;;;;;8.93;2.85;;;;;;;-144.47;40.97;53173.88;5009050;28;20053;-67
2022/05/19 07:53:21;;;;;;;7.93;2.72;;;;;;;-144.47;41.27;53128.22;5029853;28;20066;-69
2022/05/19 07:55:46;;;;;;;8.68;2.72;;;;;;;-144.47;40.68;53167.94;5030534;28;20037;-67
2022/05/19 07:58:11;;;;;;;8.35;3.05;;;;;;;-144.47;40.33;53163.97;5030322;28;20022;-64
2022/05/19 08:00:37;;;;;;;10.93;2.70;;;;;;;-144.47;40.07;53130.19;5029702;28;20029;-66
2022/05/19 08:03:02;;;;;;;10.75;2.40;;;;;;;-144.47;39.43;53167.94;5030438;28;20026;-66
2022/05/19 08:05:28;;;;;;;7.30;2.75;;;;;;;-144.47;39.08;53161.97;5030202;28;20152;-66
2022/05/19 08:07:53;;;;;;;9.95;2.65;;;;;;;-144.47;39.33;53173.88;5030125;28;20021;-67
2022/05/19 08:10:23;;;;;;;12.80;2.92;;;;;;;-144.47;39.23;53185.81;5030468;28;20017;-67
2022/05/19 08:15:36;;;;;;;11.07;2.80;;;;;;;-144.47;38.52;53146.09;5030743;28;20337;-68
2022/05/19 08:18:13;;;;;;;9.88;2.25;;;;;;;-144.47;38.86;53140.13;5030165;28;20021;-67
2022/05/19 08:20:45;;;;;;;10.45;3.10;;;;;;;-144.47;38.72;53150.06;5030009;28;20033;-68
2022/05/19 08:23:18;;;;;;;8.15;2.85;;;;;;;-144.47;38.33;53156.00;5030410;28;20025;-66
2022/05/19 08:25:44;;;;;;;15.63;2.70;;;;;;;-144.47;37.53;53120.25;5030536;28;20021;-66
2022/05/19 08:28:10;;;;;;;6.43;2.53;;;;;;;-144.47;37.79;53160.00;5009243;28;20026;-68
2022/05/19 08:30:36;;;;;;;7.13;2.42;;;;;;;-144.47;37.95;53154.03;5022778;28;20064;-67
2022/05/19 08:33:05;;;;;;;6.38;2.45;;;;;;;-144.47;36.93;53154.03;5029050;28;20029;-64
2022/05/19 08:35:30;;;;;;;4.40;2.20;;;;;;;-144.47;37.34;53114.31;5029290;28;20109;-67
2022/05/19 08:37:56;;;;;;;7.45;2.45;;;;;;;-144.47;36.61;53152.03;5030130;28;20117;-67
2022/05/19 08:40:22;;;;;;;9.10;2.20;;;;;;;-144.47;36.36;53144.09;5029479;28;20030;-67
2022/05/19 08:42:55;;;;;;;14.02;2.45;;;;;;;-144.47;36.23;53165.94;5011803;28;20139;-65
2022/05/19 08:45:37;;;;;;;5.28;2.17;;;;;;;-144.47;36.13;53179.84;5030297;28;20021;-67
2022/05/19 08:48:10;;;;;;;9.57;2.38;;;;;;;-144.47;36.18;53126.22;5018756;28;20067;-69
2022/05/19 08:50:46;;;;;;;4.72;2.50;;;;;;;-144.47;35.19;53140.13;5028999;28;20056;-67
2022/05/19 08:53:12;;;;;;;14.57;3.00;;;;;;;-144.47;35.29;53142.09;5029762;28;20061;-69
2022/05/19 08:55:41;;;;;;;9.68;2.20;;;;;;;-144.47;35.23;53110.31;5030063;28;20028;-68
2022/05/19 08:58:18;;;;;;;6.10;2.28;;;;;;;-144.47;34.76;53144.09;5029293;28;20449;-67
2022/05/19 09:00:52;;;;;;;7.00;2.00;;;;;;;-144.47;34.12;53110.31;5028317;28;20037;-67
2022/05/19 09:03:27;;;;;;;7.80;2.30;;;;;;;-144.47;34.23;53140.13;5029349;28;20113;-68
2022/05/19 09:06:14;;;;;;;7.78;2.13;;;;;;;-144.47;34.45;53154.03;5028885;28;20037;-67
2022/05/19 09:09:03;;;;;;;6.35;1.95;;;;;;;-144.47;34.46;53112.31;5028196;28;20029;-65
2022/05/19 09:11:47;;;;;;;10.02;2.80;;;;;;;-144.47;34.22;53132.19;5010507;28;20043;-67
2022/05/19 09:14:23;;;;;;;13.38;2.25;;;;;;;-144.47;33.91;53106.34;5029480;28;20485;-67
2022/05/19 09:16:49;;;;;;;8.57;2.25;;;;;;;-144.47;34.02;53104.38;5029091;28;20033;-69
2022/05/19 09:19:25;;;;;;;7.78;2.30;;;;;;;-144.47;33.94;53124.22;5028473;28;20120;-66
2022/05/19 09:22:02;;;;;;;5.03;2.60;;;;;;;-144.47;34.35;53112.31;5029082;28;20033;-68
2022/05/19 09:24:28;;;;;;;7.20;2.10;;;;;;;-144.47;33.97;53102.38;5017189;28;20034;-66
2022/05/19 09:26:55;;;;;;;10.00;1.98;;;;;;;-144.47;33.92;53120.25;5029172;28;20029;-66
2022/05/19 09:29:34;;;;;;;10.80;2.00;;;;;;;-144.47;33.27;53122.25;5029121;28;20021;-68
2022/05/19 09:32:26;;;;;;;5.18;1.73;;;;;;;-144.47;32.97;53126.22;5028946;28;20104;-68
2022/05/19 09:35:04;;;;;;;10.43;2.00;;;;;;;-144.47;33.07;53116.28;5017031;28;20037;-68
2022/05/19 09:37:45;;;;;;;12.68;2.35;;;;;;;-144.47;33.01;53118.28;5025052;28;20100;-66
2022/05/19 09:40:10;;;;;;;5.53;1.70;;;;;;;-144.47;32.48;53124.22;5028826;28;20061;-68
2022/05/19 09:42:48;;;;;;;8.57;2.40;;;;;;;-144.47;32.35;53090.47;5028405;28;20061;-67
2022/05/19 09:45:14;;;;;;;6.65;2.00;;;;;;;-144.47;32.51;53110.31;5029311;28;20778;-67
2022/05/19 09:47:42;;;;;;;12.27;2.75;;;;;;;-144.47;31.72;53124.22;5028725;28;20036;-64
2022/05/19 09:50:10;;;;;;;11.27;3.00;;;;;;;-144.47;31.84;53066.63;5027027;28;20025;-72
2022/05/19 09:52:41;;;;;;;19.67;2.28;;;;;;;-144.47;31.52;53076.56;5028613;28;20025;-65
2022/05/19 09:55:08;;;;;;;7.25;2.30;;;;;;;-144.47;31.48;53116.28;5028668;28;20037;-67
2022/05/19 09:57:42;;;;;;;9.93;2.05;;;;;;;-144.47;31.86;53104.38;5028776;28;20071;-66
2022/05/19 10:00:31;;;;;;;9.07;1.80;;;;;;;-144.47;30.52;53080.53;5028893;28;20036;-67
2022/05/19 10:02:59;;;;;;;8.30;1.90;;;;;;;-144.47;30.27;53088.47;5028969;28;20038;-67
2022/05/19 10:05:31;;;;;;;6.32;3.50;;;;;;;-144.47;30.52;53106.34;5027741;28;20025;-69
2022/05/19 10:08:05;;;;;;;6.50;2.47;;;;;;;-144.47;30.56;53088.47;5028733;28;20029;-66
2022/05/19 10:10:33;;;;;;;10.13;2.85;;;;;;;-144.47;30.58;53048.75;5028819;28;20326;-65
2022/05/19 10:13:06;;;;;;;;;;;;;;;-144.47;29.77;53070.59;5032687;28;20033;-65
2022/05/19 10:15:49;;;;;;;9.10;1.95;;;;;;;-144.47;29.88;53060.66;5031943;28;19954;-67
2022/05/19 10:18:32;;;;;;;9.32;2.03;;;;;;;-144.47;29.49;53066.63;5032251;28;20104;-66
2022/05/19 10:21:10;;;;;;;9.32;3.72;;;;;;;-144.47;29.92;53110.31;5025041;28;20096;-67
2022/05/19 10:23:54;;;;;;;7.40;1.92;;;;;;;-144.47;29.47;53080.53;5032075;28;20407;-68
2022/05/19 10:26:42;;;;;;;18.00;2.40;;;;;;;-144.47;29.79;53058.69;5032173;28;20045;-69
2022/05/19 10:32:52;;;;;;;6.25;2.22;;;;;;;-144.47;29.98;53080.53;5030504;28;20028;-67
2022/05/19 10:35:37;;;;;;;9.90;2.28;;;;;;;-144.47;29.68;53032.88;5031664;28;20040;-68
2022/05/19 10:38:27;;;;;;;14.32;2.67;;;;;;;-144.47;29.74;53058.69;5010786;28;20033;-68
2022/05/19 10:41:04;;;;;;;5.90;2.17;;;;;;;-144.47;29.42;53046.75;5028738;28;20615;-68
2022/05/19 10:43:46;;;;;;;7.20;2.03;;;;;;;-144.47;29.33;53044.78;5032675;28;20033;-69
2022/05/19 10:46:15;;;;;;;7.40;2.42;;;;;;;-144.47;29.71;53086.50;5031916;28;20673;-68
2022/05/19 10:48:59;;;;;;;8.80;2.55;;;;;;;-144.47;29.62;53062.66;5031243;28;20122;-69
2022/05/19 10:51:44;;;;;;;8.65;1.92;;;;;;;-144.47;29.46;53050.75;5010032;28;20026;-67
2022/05/19 10:54:33;;;;;;;10.13;2.22;;;;;;;-144.47;29.66;53084.50;5007817;28;20037;-66
2022/05/19 10:57:09;;;;;;;8.65;2.08;;;;;;;-144.47;29.63;53022.94;5026893;28;20022;-66
2022/05/19 10:59:59;;;;;;;7.72;2.17;;;;;;;-144.47;29.44;53052.72;5030632;28;20208;-68
2022/05/19 11:02:52;;;;;;;8.90;2.00;;;;;;;-144.47;29.07;53048.75;5032186;28;20080;-69
2022/05/19 11:05:33;;;;;;;8.55;1.90;;;;;;;-144.47;28.99;53038.81;5032436;28;20128;-69
2022/05/19 11:08:20;;;;;;;8.65;1.90;;;;;;;-144.47;28.43;53068.63;5031341;28;20120;-71
2022/05/19 11:11:10;;;;;;;5.35;2.15;;;;;;;-144.47;27.99;53068.63;5019997;28;20029;-68
2022/05/19 11:13:44;;;;;;;8.52;2.17;;;;;;;-144.47;27.98;53050.75;5030944;28;20040;-67
2022/05/19 11:16:37;;;;;;;9.90;1.65;;;;;;;-144.47;27.68;53082.53;5031232;28;20081;-69
2022/05/19 11:19:19;;;;;;;10.52;2.25;;;;;;;-144.47;27.23;53005.06;5020480;28;20131;-68
2022/05/19 11:21:58;;;;;;;4.95;1.50;;;;;;;-144.47;27.55;53032.88;5030366;28;20120;-68
2022/05/19 11:24:30;;;;;;;23.33;2.45;;;;;;;-144.47;27.56;53032.88;5029781;28;20388;-65
2022/05/19 11:27:10;;;;;;;5.75;1.50;;;;;;;-144.47;27.60;53024.91;5009541;28;20072;-68
2022/05/19 11:29:39;;;;;;;4.93;1.67;;;;;;;-144.47;27.91;53042.78;5023423;28;20076;-67
2022/05/19 11:32:25;;;;;;;3.47;1.58;;;;;;;-144.47;27.38;53016.97;5009416;28;20484;-69